Погода Шевырляйна неделю

Рязанская область, Россия

23 - 29 июля
  • 23июля
    Сегодня
    +12°
    +23°
    Практически безоблачно
    ВремяПогодаТемператураВлажностьДавлениеВетер, м/сВероятность осадков
    00:00Облачно с прояснениями+16°C92 %745 мм2.5 м/с22 %
    03:00Облачно с прояснениями+15°C94 %746 мм2.9 м/с21 %
    06:00Облачно с прояснениями+15°C88 %746 мм3.3 м/с11 %
    09:00Ясно и безоблачно+19°C70 %747 мм4.0 м/с3 %
    12:00Практически безоблачно+21°C49 %747 мм4.7 м/с4 %
    15:00Практически безоблачно+23°C38 %746 мм5.2 м/с2 %
    18:00Облачно с прояснениями+22°C44 %747 мм5.3 м/с2 %
    21:00Ясно и безоблачно+16°C59 %747 мм3.4 м/с2 %
  • 24июля
    Среда
    +13°
    +25°
    Небольшая облачность
    ВремяПогодаТемператураВлажностьДавлениеВетер, м/сВероятность осадков
    00:00Практически безоблачно+14°C73 %746 мм2.5 м/с2 %
    03:00Ясно и безоблачно+13°C76 %746 мм3.4 м/с2 %
    06:00Ясно и безоблачно+14°C74 %746 мм3.5 м/с2 %
    09:00Практически безоблачно+20°C56 %746 мм2.9 м/с2 %
    12:00Облачно с прояснениями+23°C39 %745 мм4.5 м/с3 %
    15:00Небольшая облачность+24°C38 %744 мм4.9 м/с9 %
    18:00Небольшая облачность+24°C45 %744 мм4.4 м/с12 %
    21:00Практически безоблачно+18°C64 %743 мм2.7 м/с8 %
  • 25июля
    Четверг
    +12°
    +23°
    Ясно и безоблачно
    ВремяПогодаТемператураВлажностьДавлениеВетер, м/сВероятность осадков
    00:00Облачно с прояснениями+15°C86 %743 мм3.3 м/с3 %
    03:00Ясно и безоблачно+14°C97 %743 мм2.9 м/с2 %
    06:00Небольшая облачность+15°C94 %743 мм3.6 м/с3 %
    09:00Ясно и безоблачно+19°C70 %743 мм3.7 м/с6 %
    12:00Практически безоблачно+23°C55 %743 мм3.8 м/с30 %
    15:00Ясно и безоблачно+23°C43 %743 мм4.0 м/с8 %
    18:00Ясно и безоблачно+22°C42 %743 мм4.2 м/с2 %
    21:00Ясно и безоблачно+17°C58 %743 мм2.4 м/с2 %
  • 26июля
    Пятница
    +12°
    +23°
    Облачно с прояснениями
    ВремяПогодаТемператураВлажностьДавлениеВетер, м/сВероятность осадков
    00:00Ясно и безоблачно+14°C72 %743 мм1.9 м/с2 %
    03:00Ясно и безоблачно+13°C78 %744 мм2.4 м/с2 %
    06:00Ясно и безоблачно+14°C80 %745 мм2.7 м/с2 %
    09:00Ясно и безоблачно+19°C60 %745 мм3.0 м/с2 %
    12:00Практически безоблачно+23°C44 %745 мм3.3 м/с10 %
    15:00Облачно с прояснениями+22°C43 %746 мм3.7 м/с12 %
    18:00Ясно и безоблачно+23°C43 %746 мм4.0 м/с14 %
    21:00Ясно и безоблачно+17°C60 %747 мм2.1 м/с2 %
  • 27июля
    Суббота
    +14°
    +26°
    Практически безоблачно
    ВремяПогодаТемператураВлажностьДавлениеВетер, м/сВероятность осадков
    00:00Ясно и безоблачно+14°C76 %747 мм1.8 м/с2 %
    03:00Ясно и безоблачно+13°C78 %748 мм2.2 м/с2 %
    06:00Практически безоблачно+14°C72 %748 мм3.0 м/с2 %
    09:00Практически безоблачно+19°C51 %749 мм3.8 м/с2 %
    12:00Практически безоблачно+24°C40 %749 мм4.8 м/с10 %
    15:00Практически безоблачно+25°C39 %748 мм5.3 м/с12 %
    18:00Ясно и безоблачно+25°C41 %748 мм4.4 м/с20 %
    21:00Ясно и безоблачно+20°C53 %748 мм3.6 м/с4 %
Мы используем cookies
Соглашаюсь